sensor_id;sensor_type;location;lat;lon;timestamp;pressure;altitude;pressure_sealevel;temperature;humidity
14295;BME280;7231;59.370;18.016;2023-04-06T00:02:03;102366.72;;;-0.49;98.49
14295;BME280;7231;59.370;18.016;2023-04-06T00:04:32;102389.44;;;-0.37;98.40
14295;BME280;7231;59.370;18.016;2023-04-06T00:07:01;102334.03;;;-0.68;98.36
14295;BME280;7231;59.370;18.016;2023-04-06T00:09:29;102368.88;;;-0.54;98.61
14295;BME280;7231;59.370;18.016;2023-04-06T00:11:57;102370.53;;;-0.54;98.30
14295;BME280;7231;59.370;18.016;2023-04-06T00:14:25;102399.16;;;-0.43;98.44
14295;BME280;7231;59.370;18.016;2023-04-06T00:16:53;102404.00;;;-0.46;98.62
14295;BME280;7231;59.370;18.016;2023-04-06T00:19:21;102398.56;;;-0.49;98.60
14295;BME280;7231;59.370;18.016;2023-04-06T00:21:49;102396.75;;;-0.50;98.55
14295;BME280;7231;59.370;18.016;2023-04-06T00:24:18;102400.09;;;-0.51;98.67
14295;BME280;7231;59.370;18.016;2023-04-06T00:26:46;102387.22;;;-0.68;98.32
14295;BME280;7231;59.370;18.016;2023-04-06T00:29:14;102393.09;;;-0.52;98.65
14295;BME280;7231;59.370;18.016;2023-04-06T00:31:42;102402.66;;;-0.51;98.52
14295;BME280;7231;59.370;18.016;2023-04-06T00:34:11;102397.50;;;-0.51;98.56
14295;BME280;7231;59.370;18.016;2023-04-06T00:36:38;102396.44;;;-0.53;98.70
14295;BME280;7231;59.370;18.016;2023-04-06T00:39:07;102304.44;;;-1.07;98.43
14295;BME280;7231;59.370;18.016;2023-04-06T00:41:37;102392.81;;;-0.55;98.68
14295;BME280;7231;59.370;18.016;2023-04-06T00:44:06;102401.44;;;-0.54;98.86
14295;BME280;7231;59.370;18.016;2023-04-06T00:46:34;102398.72;;;-0.56;98.74
14295;BME280;7231;59.370;18.016;2023-04-06T00:49:03;102399.47;;;-0.57;98.94
14295;BME280;7231;59.370;18.016;2023-04-06T00:51:32;102404.63;;;-0.57;98.90
14295;BME280;7231;59.370;18.016;2023-04-06T00:54:00;102401.91;;;-0.58;98.82
14295;BME280;7231;59.370;18.016;2023-04-06T00:56:28;102399.19;;;-0.60;98.94
14295;BME280;7231;59.370;18.016;2023-04-06T00:58:57;102401.00;;;-0.59;98.81
14295;BME280;7231;59.370;18.016;2023-04-06T01:01:25;102398.44;;;-0.59;98.78
14295;BME280;7231;59.370;18.016;2023-04-06T01:03:55;102350.28;;;-0.86;98.63
14295;BME280;7231;59.370;18.016;2023-04-06T01:06:23;102407.53;;;-0.62;98.97
14295;BME280;7231;59.370;18.016;2023-04-06T01:08:51;102384.81;;;-0.75;99.00
14295;BME280;7231;59.370;18.016;2023-04-06T01:11:19;102382.84;;;-0.78;98.95
14295;BME280;7231;59.370;18.016;2023-04-06T01:13:47;102302.63;;;-1.25;98.78
14295;BME280;7231;59.370;18.016;2023-04-06T01:16:17;102322.31;;;-1.09;98.82
14295;BME280;7231;59.370;18.016;2023-04-06T01:18:45;102345.31;;;-1.02;98.99
14295;BME280;7231;59.370;18.016;2023-04-06T01:21:13;102403.59;;;-0.68;98.97
14295;BME280;7231;59.370;18.016;2023-04-06T01:23:45;102401.94;;;-0.67;99.05
14295;BME280;7231;59.370;18.016;2023-04-06T01:26:13;102386.03;;;-0.80;99.18
14295;BME280;7231;59.370;18.016;2023-04-06T01:28:41;102404.97;;;-0.71;99.04
14295;BME280;7231;59.370;18.016;2023-04-06T01:31:10;102403.28;;;-0.71;99.25
14295;BME280;7231;59.370;18.016;2023-04-06T01:33:38;102406.03;;;-0.69;99.47
14295;BME280;7231;59.370;18.016;2023-04-06T01:36:07;102355.59;;;-1.02;99.97
14295;BME280;7231;59.370;18.016;2023-04-06T01:38:35;102403.56;;;-0.59;100.00
14295;BME280;7231;59.370;18.016;2023-04-06T01:41:04;102232.13;;;-1.53;100.00
14295;BME280;7231;59.370;18.016;2023-04-06T01:43:32;102368.31;;;-0.77;100.00
14295;BME280;7231;59.370;18.016;2023-04-06T01:46:00;102404.78;;;-0.47;100.00
14295;BME280;7231;59.370;18.016;2023-04-06T01:48:28;102406.13;;;-0.42;100.00
14295;BME280;7231;59.370;18.016;2023-04-06T01:50:56;102410.97;;;-0.36;100.00
14295;BME280;7231;59.370;18.016;2023-04-06T01:53:24;102375.50;;;-0.47;100.00
14295;BME280;7231;59.370;18.016;2023-04-06T01:55:52;102411.22;;;-0.24;100.00
14295;BME280;7231;59.370;18.016;2023-04-06T01:58:21;102392.88;;;-0.27;100.00
14295;BME280;7231;59.370;18.016;2023-04-06T02:00:49;102254.16;;;-1.04;100.00
14295;BME280;7231;59.370;18.016;2023-04-06T02:03:17;102411.94;;;-0.08;100.00
14295;BME280;7231;59.370;18.016;2023-04-06T02:05:45;102375.59;;;-0.20;100.00
14295;BME280;7231;59.370;18.016;2023-04-06T02:08:13;102322.16;;;-0.48;100.00
14295;BME280;7231;59.370;18.016;2023-04-06T02:10:41;102407.16;;;0.05;100.00
14295;BME280;7231;59.370;18.016;2023-04-06T02:13:09;102406.53;;;0.08;100.00
14295;BME280;7231;59.370;18.016;2023-04-06T02:15:39;102407.72;;;0.11;100.00
14295;BME280;7231;59.370;18.016;2023-04-06T02:18:07;102369.63;;;-0.10;100.00
14295;BME280;7231;59.370;18.016;2023-04-06T02:20:36;102322.56;;;-0.35;100.00
14295;BME280;7231;59.370;18.016;2023-04-06T02:23:04;102412.09;;;0.21;100.00
14295;BME280;7231;59.370;18.016;2023-04-06T02:25:32;102411.47;;;0.23;100.00
14295;BME280;7231;59.370;18.016;2023-04-06T02:28:00;102415.84;;;0.24;100.00
14295;BME280;7231;59.370;18.016;2023-04-06T02:30:28;102416.16;;;0.27;100.00
14295;BME280;7231;59.370;18.016;2023-04-06T02:32:57;102411.13;;;0.29;100.00
14295;BME280;7231;59.370;18.016;2023-04-06T02:35:25;102415.53;;;0.30;100.00
14295;BME280;7231;59.370;18.016;2023-04-06T02:37:53;102405.34;;;0.31;100.00
14295;BME280;7231;59.370;18.016;2023-04-06T02:40:21;102415.97;;;0.35;100.00
14295;BME280;7231;59.370;18.016;2023-04-06T02:42:49;102420.34;;;0.36;100.00
14295;BME280;7231;59.370;18.016;2023-04-06T02:45:18;102409.28;;;0.37;100.00
14295;BME280;7231;59.370;18.016;2023-04-06T02:47:47;102412.13;;;0.40;100.00
14295;BME280;7231;59.370;18.016;2023-04-06T02:50:16;102307.50;;;-0.22;100.00
14295;BME280;7231;59.370;18.016;2023-04-06T02:52:44;102413.03;;;0.40;100.00
14295;BME280;7231;59.370;18.016;2023-04-06T02:55:12;102419.13;;;0.41;100.00
14295;BME280;7231;59.370;18.016;2023-04-06T02:57:40;102331.25;;;-0.07;100.00
14295;BME280;7231;59.370;18.016;2023-04-06T03:00:09;102310.22;;;-0.20;100.00
14295;BME280;7231;59.370;18.016;2023-04-06T03:02:37;102416.06;;;0.45;100.00
14295;BME280;7231;59.370;18.016;2023-04-06T03:05:06;102421.50;;;0.48;100.00
14295;BME280;7231;59.370;18.016;2023-04-06T03:07:35;102417.25;;;0.48;100.00
14295;BME280;7231;59.370;18.016;2023-04-06T03:10:04;102353.84;;;0.14;100.00
14295;BME280;7231;59.370;18.016;2023-04-06T03:12:32;102412.84;;;0.47;100.00
14295;BME280;7231;59.370;18.016;2023-04-06T03:15:00;102423.31;;;0.49;100.00
14295;BME280;7231;59.370;18.016;2023-04-06T03:17:28;102336.06;;;-0.02;100.00
14295;BME280;7231;59.370;18.016;2023-04-06T03:19:56;102416.63;;;0.51;100.00
14295;BME280;7231;59.370;18.016;2023-04-06T03:22:24;102374.88;;;0.27;100.00
14295;BME280;7231;59.370;18.016;2023-04-06T03:24:54;102428.75;;;0.52;100.00
14295;BME280;7231;59.370;18.016;2023-04-06T03:27:22;102421.16;;;0.53;100.00
14295;BME280;7231;59.370;18.016;2023-04-06T03:29:50;102418.72;;;0.55;100.00
14295;BME280;7231;59.370;18.016;2023-04-06T03:32:18;102424.81;;;0.55;100.00
14295;BME280;7231;59.370;18.016;2023-04-06T03:34:46;102425.72;;;0.56;100.00
14295;BME280;7231;59.370;18.016;2023-04-06T03:37:13;102427.53;;;0.57;100.00
14295;BME280;7231;59.370;18.016;2023-04-06T03:39:42;102401.34;;;0.44;100.00
14295;BME280;7231;59.370;18.016;2023-04-06T03:42:11;102353.38;;;0.18;100.00
14295;BME280;7231;59.370;18.016;2023-04-06T03:44:39;102410.00;;;0.44;100.00
14295;BME280;7231;59.370;18.016;2023-04-06T03:47:07;102431.91;;;0.58;100.00
14295;BME280;7231;59.370;18.016;2023-04-06T03:49:35;102435.56;;;0.60;100.00
14295;BME280;7231;59.370;18.016;2023-04-06T03:52:06;102434.78;;;0.61;100.00
14295;BME280;7231;59.370;18.016;2023-04-06T03:54:34;102431.91;;;0.58;100.00
14295;BME280;7231;59.370;18.016;2023-04-06T03:57:03;102439.66;;;0.58;100.00
14295;BME280;7231;59.370;18.016;2023-04-06T03:59:32;102399.38;;;0.41;100.00
14295;BME280;7231;59.370;18.016;2023-04-06T04:02:01;102370.34;;;0.25;100.00
14295;BME280;7231;59.370;18.016;2023-04-06T04:04:29;102449.94;;;0.67;100.00
14295;BME280;7231;59.370;18.016;2023-04-06T04:06:57;102439.75;;;0.68;100.00
14295;BME280;7231;59.370;18.016;2023-04-06T04:09:25;102447.63;;;0.70;100.00
14295;BME280;7231;59.370;18.016;2023-04-06T04:11:55;102449.31;;;0.69;100.00
14295;BME280;7231;59.370;18.016;2023-04-06T04:14:23;102292.63;;;-0.16;100.00
14295;BME280;7231;59.370;18.016;2023-04-06T04:16:53;102443.25;;;0.69;100.00
14295;BME280;7231;59.370;18.016;2023-04-06T04:19:21;102448.69;;;0.72;100.00
14295;BME280;7231;59.370;18.016;2023-04-06T04:21:49;102467.81;;;0.74;100.00
14295;BME280;7231;59.370;18.016;2023-04-06T04:24:17;102449.59;;;0.72;100.00
14295;BME280;7231;59.370;18.016;2023-04-06T04:26:45;102454.28;;;0.76;100.00
14295;BME280;7231;59.370;18.016;2023-04-06T04:29:13;102424.47;;;0.61;100.00
14295;BME280;7231;59.370;18.016;2023-04-06T04:31:42;102459.59;;;0.78;100.00
14295;BME280;7231;59.370;18.016;2023-04-06T04:34:11;102421.75;;;0.59;100.00
14295;BME280;7231;59.370;18.016;2023-04-06T04:36:39;102462.31;;;0.79;100.00
14295;BME280;7231;59.370;18.016;2023-04-06T04:39:08;102416.28;;;0.56;100.00
14295;BME280;7231;59.370;18.016;2023-04-06T04:41:36;102461.81;;;0.83;100.00
14295;BME280;7231;59.370;18.016;2023-04-06T04:44:04;102455.13;;;0.85;100.00
14295;BME280;7231;59.370;18.016;2023-04-06T04:46:32;102471.97;;;0.90;100.00
14295;BME280;7231;59.370;18.016;2023-04-06T04:49:00;102466.94;;;0.92;100.00
14295;BME280;7231;59.370;18.016;2023-04-06T04:51:29;102471.47;;;0.94;100.00
14295;BME280;7231;59.370;18.016;2023-04-06T04:53:58;102469.94;;;0.96;100.00
14295;BME280;7231;59.370;18.016;2023-04-06T04:56:26;102471.00;;;0.98;100.00
14295;BME280;7231;59.370;18.016;2023-04-06T04:58:55;102478.25;;;1.03;100.00
14295;BME280;7231;59.370;18.016;2023-04-06T05:01:23;102480.06;;;1.04;100.00
14295;BME280;7231;59.370;18.016;2023-04-06T05:03:51;102453.13;;;0.91;100.00
14295;BME280;7231;59.370;18.016;2023-04-06T05:06:19;102473.66;;;1.09;100.00
14295;BME280;7231;59.370;18.016;2023-04-06T05:08:49;102426.44;;;0.82;100.00
14295;BME280;7231;59.370;18.016;2023-04-06T05:11:17;102420.09;;;0.79;100.00
14295;BME280;7231;59.370;18.016;2023-04-06T05:13:45;102489.22;;;1.19;100.00
14295;BME280;7231;59.370;18.016;2023-04-06T05:16:13;102481.75;;;1.22;100.00
14295;BME280;7231;59.370;18.016;2023-04-06T05:18:41;102483.09;;;1.27;100.00
14295;BME280;7231;59.370;18.016;2023-04-06T05:21:10;102430.84;;;1.02;100.00
14295;BME280;7231;59.370;18.016;2023-04-06T05:23:38;102479.53;;;1.35;100.00
14295;BME280;7231;59.370;18.016;2023-04-06T05:26:07;102479.94;;;1.40;100.00
14295;BME280;7231;59.370;18.016;2023-04-06T05:28:35;102482.19;;;1.45;100.00
14295;BME280;7231;59.370;18.016;2023-04-06T05:31:03;102417.25;;;1.13;100.00
14295;BME280;7231;59.370;18.016;2023-04-06T05:33:32;102425.97;;;1.24;100.00
14295;BME280;7231;59.370;18.016;2023-04-06T05:36:00;102489.38;;;1.58;100.00
14295;BME280;7231;59.370;18.016;2023-04-06T05:38:28;102490.53;;;1.61;100.00
14295;BME280;7231;59.370;18.016;2023-04-06T05:40:56;102455.97;;;1.51;100.00
14295;BME280;7231;59.370;18.016;2023-04-06T05:43:26;102484.38;;;1.70;100.00
14295;BME280;7231;59.370;18.016;2023-04-06T05:45:54;102495.13;;;1.74;100.00
14295;BME280;7231;59.370;18.016;2023-04-06T05:48:22;102491.16;;;1.78;100.00
14295;BME280;7231;59.370;18.016;2023-04-06T05:50:50;102495.97;;;1.83;100.00
14295;BME280;7231;59.370;18.016;2023-04-06T05:53:18;102351.56;;;1.01;100.00
14295;BME280;7231;59.370;18.016;2023-04-06T05:55:47;102497.69;;;1.93;100.00
14295;BME280;7231;59.370;18.016;2023-04-06T05:58:15;102475.91;;;1.81;99.92
14295;BME280;7231;59.370;18.016;2023-04-06T06:00:45;102381.69;;;1.29;99.99
14295;BME280;7231;59.370;18.016;2023-04-06T06:03:13;102475.41;;;1.85;99.71
14295;BME280;7231;59.370;18.016;2023-04-06T06:05:41;102502.13;;;2.04;99.64
14295;BME280;7231;59.370;18.016;2023-04-06T06:08:10;102505.25;;;2.10;99.96
14295;BME280;7231;59.370;18.016;2023-04-06T06:10:38;102509.56;;;2.20;99.63
14295;BME280;7231;59.370;18.016;2023-04-06T06:13:09;102374.94;;;1.50;99.50
14295;BME280;7231;59.370;18.016;2023-04-06T06:15:38;102512.31;;;2.32;98.80
14295;BME280;7231;59.370;18.016;2023-04-06T06:18:07;102510.16;;;2.36;98.48
14295;BME280;7231;59.370;18.016;2023-04-06T06:20:35;102489.28;;;2.35;98.44
14295;BME280;7231;59.370;18.016;2023-04-06T06:23:03;102507.72;;;2.48;98.71
14295;BME280;7231;59.370;18.016;2023-04-06T06:25:31;102436.31;;;2.11;98.44
14295;BME280;7231;59.370;18.016;2023-04-06T06:28:00;102485.97;;;2.46;97.75
14295;BME280;7231;59.370;18.016;2023-04-06T06:30:28;102505.63;;;2.64;98.35
14295;BME280;7231;59.370;18.016;2023-04-06T06:32:56;102494.25;;;2.62;97.50
14295;BME280;7231;59.370;18.016;2023-04-06T06:35:25;102517.44;;;2.71;97.64
14295;BME280;7231;59.370;18.016;2023-04-06T06:37:54;102512.38;;;2.72;97.02
14295;BME280;7231;59.370;18.016;2023-04-06T06:40:22;102497.09;;;2.65;97.36
14295;BME280;7231;59.370;18.016;2023-04-06T06:42:50;102509.28;;;2.86;96.34
14295;BME280;7231;59.370;18.016;2023-04-06T06:45:19;102512.66;;;2.96;96.17
14295;BME280;7231;59.370;18.016;2023-04-06T06:47:47;102479.25;;;2.78;96.28
14295;BME280;7231;59.370;18.016;2023-04-06T06:50:15;102512.69;;;3.06;96.14
14295;BME280;7231;59.370;18.016;2023-04-06T06:52:44;102510.59;;;3.12;95.61
14295;BME280;7231;59.370;18.016;2023-04-06T06:55:12;102515.00;;;3.23;95.60
14295;BME280;7231;59.370;18.016;2023-04-06T06:57:40;102523.44;;;3.31;95.42
14295;BME280;7231;59.370;18.016;2023-04-06T07:00:10;102510.59;;;3.32;94.99
14295;BME280;7231;59.370;18.016;2023-04-06T07:02:39;102473.28;;;3.20;94.95
14295;BME280;7231;59.370;18.016;2023-04-06T07:05:07;102520.13;;;3.64;94.85
14295;BME280;7231;59.370;18.016;2023-04-06T07:07:54;102520.63;;;3.70;94.40
14295;BME280;7231;59.370;18.016;2023-04-06T07:10:22;102515.19;;;3.77;94.22
14295;BME280;7231;59.370;18.016;2023-04-06T07:12:50;102513.22;;;3.84;94.21
14295;BME280;7231;59.370;18.016;2023-04-06T07:15:18;102513.06;;;3.93;93.97
14295;BME280;7231;59.370;18.016;2023-04-06T07:17:46;102521.84;;;4.05;93.93
14295;BME280;7231;59.370;18.016;2023-04-06T07:20:14;102519.31;;;4.17;93.33
14295;BME280;7231;59.370;18.016;2023-04-06T07:22:43;102517.47;;;4.26;93.00
14295;BME280;7231;59.370;18.016;2023-04-06T07:25:13;102525.19;;;4.36;92.49
14295;BME280;7231;59.370;18.016;2023-04-06T07:27:40;102523.22;;;4.44;91.79
14295;BME280;7231;59.370;18.016;2023-04-06T07:30:09;102530.03;;;4.53;91.68
14295;BME280;7231;59.370;18.016;2023-04-06T07:32:37;102531.66;;;4.63;91.52
14295;BME280;7231;59.370;18.016;2023-04-06T07:35:05;102527.97;;;4.71;91.09
14295;BME280;7231;59.370;18.016;2023-04-06T07:37:34;102526.47;;;4.85;90.76
14295;BME280;7231;59.370;18.016;2023-04-06T07:40:02;102524.16;;;5.00;90.65
14295;BME280;7231;59.370;18.016;2023-04-06T07:42:31;102531.19;;;5.12;89.82
14295;BME280;7231;59.370;18.016;2023-04-06T07:44:59;102533.69;;;5.22;89.18
14295;BME280;7231;59.370;18.016;2023-04-06T07:47:27;102530.09;;;5.32;88.67
14295;BME280;7231;59.370;18.016;2023-04-06T07:49:55;102509.03;;;5.29;88.07
14295;BME280;7231;59.370;18.016;2023-04-06T07:52:23;102527.72;;;5.47;87.83
14295;BME280;7231;59.370;18.016;2023-04-06T07:54:51;102523.09;;;5.54;87.43
14295;BME280;7231;59.370;18.016;2023-04-06T07:57:19;102525.94;;;5.58;86.49
14295;BME280;7231;59.370;18.016;2023-04-06T07:59:48;102532.16;;;5.60;85.74
14295;BME280;7231;59.370;18.016;2023-04-06T08:02:17;102528.31;;;5.54;85.60
14295;BME280;7231;59.370;18.016;2023-04-06T08:04:45;102534.78;;;5.71;79.74
14295;BME280;7231;59.370;18.016;2023-04-06T08:07:13;102533.31;;;5.75;80.51
14295;BME280;7231;59.370;18.016;2023-04-06T08:09:41;102519.28;;;5.73;80.53
14295;BME280;7231;59.370;18.016;2023-04-06T08:12:09;102520.06;;;5.83;80.98
14295;BME280;7231;59.370;18.016;2023-04-06T08:14:37;102532.66;;;6.01;80.31
14295;BME280;7231;59.370;18.016;2023-04-06T08:17:06;102532.09;;;6.05;80.45
14295;BME280;7231;59.370;18.016;2023-04-06T08:19:34;102494.97;;;5.96;81.09
14295;BME280;7231;59.370;18.016;2023-04-06T08:22:04;102534.28;;;6.47;81.05
14295;BME280;7231;59.370;18.016;2023-04-06T08:24:32;102473.69;;;6.38;80.89
14295;BME280;7231;59.370;18.016;2023-04-06T08:27:00;102540.31;;;6.82;79.78
14295;BME280;7231;59.370;18.016;2023-04-06T08:29:28;102510.44;;;6.66;78.20
14295;BME280;7231;59.370;18.016;2023-04-06T08:31:56;102546.56;;;6.73;77.07
14295;BME280;7231;59.370;18.016;2023-04-06T08:34:25;102543.34;;;6.52;75.23
14295;BME280;7231;59.370;18.016;2023-04-06T08:36:53;102549.06;;;6.23;74.27
14295;BME280;7231;59.370;18.016;2023-04-06T08:39:21;102482.72;;;5.60;72.65
14295;BME280;7231;59.370;18.016;2023-04-06T08:41:52;102535.22;;;5.77;71.98
14295;BME280;7231;59.370;18.016;2023-04-06T08:44:23;102542.47;;;5.70;71.57
14295;BME280;7231;59.370;18.016;2023-04-06T08:46:51;102538.72;;;5.66;71.09
14295;BME280;7231;59.370;18.016;2023-04-06T08:49:20;102540.22;;;5.74;71.17
14295;BME280;7231;59.370;18.016;2023-04-06T08:51:50;102541.94;;;6.21;72.57
14295;BME280;7231;59.370;18.016;2023-04-06T08:54:18;102535.66;;;6.42;71.21
14295;BME280;7231;59.370;18.016;2023-04-06T08:56:47;102534.16;;;6.57;70.59
14295;BME280;7231;59.370;18.016;2023-04-06T08:59:16;102531.19;;;6.64;70.69
14295;BME280;7231;59.370;18.016;2023-04-06T09:01:44;102528.78;;;6.67;69.32
14295;BME280;7231;59.370;18.016;2023-04-06T09:04:13;102531.19;;;6.64;69.04
14295;BME280;7231;59.370;18.016;2023-04-06T09:06:42;102530.06;;;6.61;68.76
14295;BME280;7231;59.370;18.016;2023-04-06T09:09:11;102510.41;;;6.41;67.81
14295;BME280;7231;59.370;18.016;2023-04-06T09:11:44;102519.44;;;6.46;67.14
14295;BME280;7231;59.370;18.016;2023-04-06T09:14:12;102438.59;;;5.96;66.91
14295;BME280;7231;59.370;18.016;2023-04-06T09:16:40;102525.81;;;6.38;67.43
14295;BME280;7231;59.370;18.016;2023-04-06T09:19:09;102494.28;;;6.10;66.89
14295;BME280;7231;59.370;18.016;2023-04-06T09:21:37;102533.97;;;6.31;66.91
14295;BME280;7231;59.370;18.016;2023-04-06T09:24:07;102513.50;;;6.24;67.01
14295;BME280;7231;59.370;18.016;2023-04-06T09:26:47;102493.47;;;6.11;66.41
14295;BME280;7231;59.370;18.016;2023-04-06T09:29:24;102527.41;;;6.36;66.56
14295;BME280;7231;59.370;18.016;2023-04-06T09:32:02;102529.22;;;6.37;66.64
14295;BME280;7231;59.370;18.016;2023-04-06T09:34:30;102525.81;;;6.38;66.96
14295;BME280;7231;59.370;18.016;2023-04-06T09:36:58;102523.41;;;6.53;67.12
14295;BME280;7231;59.370;18.016;2023-04-06T09:39:26;102485.00;;;6.50;66.90
14295;BME280;7231;59.370;18.016;2023-04-06T09:41:55;102507.78;;;6.77;66.92
14295;BME280;7231;59.370;18.016;2023-04-06T09:44:24;102515.06;;;6.95;66.72
14295;BME280;7231;59.370;18.016;2023-04-06T09:46:53;102511.66;;;6.96;66.32
14295;BME280;7231;59.370;18.016;2023-04-06T09:49:27;102516.34;;;7.13;65.90
14295;BME280;7231;59.370;18.016;2023-04-06T09:52:00;102515.66;;;6.91;65.31
14295;BME280;7231;59.370;18.016;2023-04-06T09:54:30;102519.75;;;6.87;64.48
14295;BME280;7231;59.370;18.016;2023-04-06T09:57:05;102504.69;;;6.83;64.25
14295;BME280;7231;59.370;18.016;2023-04-06T09:59:43;102514.06;;;6.93;64.61
14295;BME280;7231;59.370;18.016;2023-04-06T10:02:18;102478.53;;;6.81;64.50
14295;BME280;7231;59.370;18.016;2023-04-06T10:04:56;102475.00;;;7.06;65.00
14295;BME280;7231;59.370;18.016;2023-04-06T10:07:26;102515.53;;;7.52;64.84
14295;BME280;7231;59.370;18.016;2023-04-06T10:09:55;102518.16;;;7.65;63.53
14295;BME280;7231;59.370;18.016;2023-04-06T10:12:24;102523.59;;;7.68;63.25
14295;BME280;7231;59.370;18.016;2023-04-06T10:14:53;102524.09;;;7.63;63.12
14295;BME280;7231;59.370;18.016;2023-04-06T10:17:21;102475.34;;;7.24;62.87
14295;BME280;7231;59.370;18.016;2023-04-06T10:19:53;102524.38;;;7.54;62.98
14295;BME280;7231;59.370;18.016;2023-04-06T10:22:27;102509.00;;;7.45;62.89
14295;BME280;7231;59.370;18.016;2023-04-06T10:24:57;102511.19;;;7.39;62.81
14295;BME280;7231;59.370;18.016;2023-04-06T10:27:31;102532.41;;;7.57;61.83
14295;BME280;7231;59.370;18.016;2023-04-06T10:30:04;102521.44;;;7.49;62.15
14295;BME280;7231;59.370;18.016;2023-04-06T10:32:34;102527.16;;;7.44;62.35
14295;BME280;7231;59.370;18.016;2023-04-06T10:35:07;102506.38;;;7.45;62.10
14295;BME280;7231;59.370;18.016;2023-04-06T10:37:50;102494.25;;;7.46;61.71
14295;BME280;7231;59.370;18.016;2023-04-06T10:40:20;102515.84;;;7.70;62.34
14295;BME280;7231;59.370;18.016;2023-04-06T10:42:51;102518.25;;;7.67;61.23
14295;BME280;7231;59.370;18.016;2023-04-06T10:45:20;102499.47;;;7.46;61.89
14295;BME280;7231;59.370;18.016;2023-04-06T10:47:48;102517.44;;;7.55;61.10
14295;BME280;7231;59.370;18.016;2023-04-06T10:50:17;102512.22;;;7.68;62.10
14295;BME280;7231;59.370;18.016;2023-04-06T10:52:45;102463.22;;;7.51;61.64
14295;BME280;7231;59.370;18.016;2023-04-06T10:55:15;102511.94;;;7.76;61.30
14295;BME280;7231;59.370;18.016;2023-04-06T10:57:46;102518.94;;;7.91;61.45
14295;BME280;7231;59.370;18.016;2023-04-06T11:00:16;102442.75;;;7.57;61.19
14295;BME280;7231;59.370;18.016;2023-04-06T11:02:44;102461.88;;;7.83;61.64
14295;BME280;7231;59.370;18.016;2023-04-06T11:05:12;102513.09;;;8.21;61.75
14295;BME280;7231;59.370;18.016;2023-04-06T11:07:41;102512.19;;;8.34;60.91
14295;BME280;7231;59.370;18.016;2023-04-06T11:10:09;102508.25;;;8.40;59.82
14295;BME280;7231;59.370;18.016;2023-04-06T11:12:44;102457.53;;;8.10;60.36
14295;BME280;7231;59.370;18.016;2023-04-06T11:15:12;102500.31;;;8.26;60.13
14295;BME280;7231;59.370;18.016;2023-04-06T11:17:42;102508.16;;;8.39;59.98
14295;BME280;7231;59.370;18.016;2023-04-06T11:20:11;102501.28;;;8.54;59.86
14295;BME280;7231;59.370;18.016;2023-04-06T11:22:48;102495.81;;;8.64;59.86
14295;BME280;7231;59.370;18.016;2023-04-06T11:25:16;102398.91;;;8.20;59.60
14295;BME280;7231;59.370;18.016;2023-04-06T11:27:45;102498.56;;;8.81;59.51
14295;BME280;7231;59.370;18.016;2023-04-06T11:30:14;102494.63;;;8.87;59.22
14295;BME280;7231;59.370;18.016;2023-04-06T11:32:44;102488.16;;;8.95;58.84
14295;BME280;7231;59.370;18.016;2023-04-06T11:35:19;102482.81;;;8.94;58.39
14295;BME280;7231;59.370;18.016;2023-04-06T11:37:48;102496.09;;;8.97;58.79
14295;BME280;7231;59.370;18.016;2023-04-06T11:40:20;102371.53;;;8.28;57.77
14295;BME280;7231;59.370;18.016;2023-04-06T11:42:52;102494.81;;;8.90;57.73
14295;BME280;7231;59.370;18.016;2023-04-06T11:45:21;102426.69;;;8.46;57.85
14295;BME280;7231;59.370;18.016;2023-04-06T11:47:57;102495.88;;;8.79;56.92
14295;BME280;7231;59.370;18.016;2023-04-06T11:50:32;102448.84;;;8.66;57.35
14295;BME280;7231;59.370;18.016;2023-04-06T11:53:02;102484.38;;;9.05;57.34
14295;BME280;7231;59.370;18.016;2023-04-06T11:55:36;102472.09;;;9.04;56.96
14295;BME280;7231;59.370;18.016;2023-04-06T11:58:05;102487.75;;;9.32;57.95
14295;BME280;7231;59.370;18.016;2023-04-06T12:00:34;102456.38;;;9.63;57.67
14295;BME280;7231;59.370;18.016;2023-04-06T12:03:04;102483.28;;;9.75;56.96
14295;BME280;7231;59.370;18.016;2023-04-06T12:05:33;102445.28;;;9.67;56.46
14295;BME280;7231;59.370;18.016;2023-04-06T12:08:01;102409.19;;;9.47;56.00
14295;BME280;7231;59.370;18.016;2023-04-06T12:10:30;102478.69;;;9.71;55.71
14295;BME280;7231;59.370;18.016;2023-04-06T12:12:57;102485.56;;;9.54;55.64
14295;BME280;7231;59.370;18.016;2023-04-06T12:15:26;102478.72;;;9.41;55.50
14295;BME280;7231;59.370;18.016;2023-04-06T12:17:54;102471.56;;;9.24;55.52
14295;BME280;7231;59.370;18.016;2023-04-06T12:20:23;102473.47;;;9.12;55.77
14295;BME280;7231;59.370;18.016;2023-04-06T12:22:53;102467.59;;;9.01;55.98
14295;BME280;7231;59.370;18.016;2023-04-06T12:25:21;102450.78;;;8.83;56.18
14295;BME280;7231;59.370;18.016;2023-04-06T12:27:49;102472.97;;;8.90;56.58
14295;BME280;7231;59.370;18.016;2023-04-06T12:30:17;102469.03;;;8.96;56.89
14295;BME280;7231;59.370;18.016;2023-04-06T12:32:45;102467.84;;;8.91;55.99
14295;BME280;7231;59.370;18.016;2023-04-06T12:35:16;102467.38;;;8.84;56.14
14295;BME280;7231;59.370;18.016;2023-04-06T12:37:46;102461.91;;;8.66;56.21
14295;BME280;7231;59.370;18.016;2023-04-06T12:40:14;102464.06;;;8.58;56.46
14295;BME280;7231;59.370;18.016;2023-04-06T12:42:41;102448.66;;;8.35;56.76
14295;BME280;7231;59.370;18.016;2023-04-06T12:45:10;102447.13;;;8.25;57.18
14295;BME280;7231;59.370;18.016;2023-04-06T12:47:38;102463.44;;;8.34;57.22
14295;BME280;7231;59.370;18.016;2023-04-06T12:50:07;102455.97;;;8.40;56.72
14295;BME280;7231;59.370;18.016;2023-04-06T12:52:35;102443.44;;;8.35;56.92
14295;BME280;7231;59.370;18.016;2023-04-06T12:55:05;102459.50;;;8.41;56.56
14295;BME280;7231;59.370;18.016;2023-04-06T12:57:33;102453.97;;;8.36;57.17
14295;BME280;7231;59.370;18.016;2023-04-06T13:00:01;102451.03;;;8.32;57.37
14295;BME280;7231;59.370;18.016;2023-04-06T13:02:32;102456.84;;;8.54;57.96
14295;BME280;7231;59.370;18.016;2023-04-06T13:05:00;102454.88;;;9.07;57.98